sensor_id;sensor_type;location;lat;lon;timestamp;temperature;humidity
57753;DHT22;43583;53.132;6.574;2022-07-06T00:02:04;13.90;99.90
57753;DHT22;43583;53.132;6.574;2022-07-06T00:04:29;13.90;99.90
57753;DHT22;43583;53.132;6.574;2022-07-06T00:06:55;13.90;99.90
57753;DHT22;43583;53.132;6.574;2022-07-06T00:09:20;13.80;99.90
57753;DHT22;43583;53.132;6.574;2022-07-06T00:11:46;13.80;99.90
57753;DHT22;43583;53.132;6.574;2022-07-06T00:14:12;13.80;99.90
57753;DHT22;43583;53.132;6.574;2022-07-06T00:16:37;13.70;99.90
57753;DHT22;43583;53.132;6.574;2022-07-06T00:19:03;13.70;99.90
57753;DHT22;43583;53.132;6.574;2022-07-06T00:21:29;13.60;99.90
57753;DHT22;43583;53.132;6.574;2022-07-06T00:23:54;13.60;99.90
57753;DHT22;43583;53.132;6.574;2022-07-06T00:26:20;13.50;99.90
57753;DHT22;43583;53.132;6.574;2022-07-06T00:28:46;13.50;99.90
57753;DHT22;43583;53.132;6.574;2022-07-06T00:31:12;13.50;99.90
57753;DHT22;43583;53.132;6.574;2022-07-06T00:33:38;13.40;99.90
57753;DHT22;43583;53.132;6.574;2022-07-06T00:36:04;13.30;99.90
57753;DHT22;43583;53.132;6.574;2022-07-06T00:38:29;13.30;99.90
57753;DHT22;43583;53.132;6.574;2022-07-06T00:40:55;13.30;99.90
57753;DHT22;43583;53.132;6.574;2022-07-06T00:43:21;13.30;99.90
57753;DHT22;43583;53.132;6.574;2022-07-06T00:45:46;13.30;99.90
57753;DHT22;43583;53.132;6.574;2022-07-06T00:48:12;13.30;99.90
57753;DHT22;43583;53.132;6.574;2022-07-06T00:50:38;13.30;99.90
57753;DHT22;43583;53.132;6.574;2022-07-06T00:53:06;13.30;99.90
57753;DHT22;43583;53.132;6.574;2022-07-06T00:55:35;13.30;99.90
57753;DHT22;43583;53.132;6.574;2022-07-06T00:58:04;13.30;99.90
57753;DHT22;43583;53.132;6.574;2022-07-06T01:00:30;13.30;99.90
57753;DHT22;43583;53.132;6.574;2022-07-06T01:02:56;13.30;99.90
57753;DHT22;43583;53.132;6.574;2022-07-06T01:05:22;13.30;99.90
57753;DHT22;43583;53.132;6.574;2022-07-06T01:07:50;13.30;99.90
57753;DHT22;43583;53.132;6.574;2022-07-06T01:10:17;13.30;99.90
57753;DHT22;43583;53.132;6.574;2022-07-06T01:12:44;13.30;99.90
57753;DHT22;43583;53.132;6.574;2022-07-06T01:15:13;13.30;99.90
57753;DHT22;43583;53.132;6.574;2022-07-06T01:17:39;13.30;99.90
57753;DHT22;43583;53.132;6.574;2022-07-06T01:20:25;13.30;99.90
57753;DHT22;43583;53.132;6.574;2022-07-06T01:22:53;13.30;99.90
57753;DHT22;43583;53.132;6.574;2022-07-06T01:25:20;13.30;99.90
57753;DHT22;43583;53.132;6.574;2022-07-06T01:27:47;13.30;99.90
57753;DHT22;43583;53.132;6.574;2022-07-06T01:30:14;13.30;99.90
57753;DHT22;43583;53.132;6.574;2022-07-06T01:32:41;13.20;99.90
57753;DHT22;43583;53.132;6.574;2022-07-06T01:35:10;13.30;99.90
57753;DHT22;43583;53.132;6.574;2022-07-06T01:37:36;13.30;99.90
57753;DHT22;43583;53.132;6.574;2022-07-06T01:40:04;13.30;99.90
57753;DHT22;43583;53.132;6.574;2022-07-06T01:42:30;13.30;99.90
57753;DHT22;43583;53.132;6.574;2022-07-06T01:44:56;13.30;99.90
57753;DHT22;43583;53.132;6.574;2022-07-06T01:47:21;13.30;99.90
57753;DHT22;43583;53.132;6.574;2022-07-06T01:49:47;13.30;99.90
57753;DHT22;43583;53.132;6.574;2022-07-06T01:52:13;13.20;99.90
57753;DHT22;43583;53.132;6.574;2022-07-06T01:54:39;13.30;99.90
57753;DHT22;43583;53.132;6.574;2022-07-06T01:57:05;13.30;99.90
57753;DHT22;43583;53.132;6.574;2022-07-06T01:59:31;13.30;99.90
57753;DHT22;43583;53.132;6.574;2022-07-06T02:01:56;13.30;99.90
57753;DHT22;43583;53.132;6.574;2022-07-06T02:04:22;13.30;99.90
57753;DHT22;43583;53.132;6.574;2022-07-06T02:06:48;13.30;99.90
57753;DHT22;43583;53.132;6.574;2022-07-06T02:09:13;13.40;99.90
57753;DHT22;43583;53.132;6.574;2022-07-06T02:11:39;13.40;99.90
57753;DHT22;43583;53.132;6.574;2022-07-06T02:14:05;13.50;99.90
57753;DHT22;43583;53.132;6.574;2022-07-06T02:16:30;13.50;99.90
57753;DHT22;43583;53.132;6.574;2022-07-06T02:18:56;13.50;99.90
57753;DHT22;43583;53.132;6.574;2022-07-06T02:21:22;13.50;99.90
57753;DHT22;43583;53.132;6.574;2022-07-06T02:23:48;13.40;99.90
57753;DHT22;43583;53.132;6.574;2022-07-06T02:26:14;13.40;99.90
57753;DHT22;43583;53.132;6.574;2022-07-06T02:28:39;13.40;99.90
57753;DHT22;43583;53.132;6.574;2022-07-06T02:31:05;13.40;99.90
57753;DHT22;43583;53.132;6.574;2022-07-06T02:33:30;13.30;99.90
57753;DHT22;43583;53.132;6.574;2022-07-06T02:35:56;13.30;99.90
57753;DHT22;43583;53.132;6.574;2022-07-06T02:38:22;13.30;99.90
57753;DHT22;43583;53.132;6.574;2022-07-06T02:40:48;13.30;99.90
57753;DHT22;43583;53.132;6.574;2022-07-06T02:43:13;13.20;99.90
57753;DHT22;43583;53.132;6.574;2022-07-06T02:45:39;13.20;99.90
57753;DHT22;43583;53.132;6.574;2022-07-06T02:48:05;13.20;99.90
57753;DHT22;43583;53.132;6.574;2022-07-06T02:50:30;13.10;99.90
57753;DHT22;43583;53.132;6.574;2022-07-06T02:52:56;13.10;99.90
57753;DHT22;43583;53.132;6.574;2022-07-06T02:55:22;13.00;99.90
57753;DHT22;43583;53.132;6.574;2022-07-06T02:57:47;12.90;99.90
57753;DHT22;43583;53.132;6.574;2022-07-06T03:00:13;12.90;99.90
57753;DHT22;43583;53.132;6.574;2022-07-06T03:02:39;12.80;99.90
57753;DHT22;43583;53.132;6.574;2022-07-06T03:05:05;12.70;99.90
57753;DHT22;43583;53.132;6.574;2022-07-06T03:07:31;12.60;99.90
57753;DHT22;43583;53.132;6.574;2022-07-06T03:09:57;12.50;99.90
57753;DHT22;43583;53.132;6.574;2022-07-06T03:12:22;12.50;99.90
57753;DHT22;43583;53.132;6.574;2022-07-06T03:14:48;12.40;99.90
57753;DHT22;43583;53.132;6.574;2022-07-06T03:17:13;12.40;99.90
57753;DHT22;43583;53.132;6.574;2022-07-06T03:19:39;12.30;99.90
57753;DHT22;43583;53.132;6.574;2022-07-06T03:22:05;12.30;99.90
57753;DHT22;43583;53.132;6.574;2022-07-06T03:24:30;12.20;99.90
57753;DHT22;43583;53.132;6.574;2022-07-06T03:26:56;12.20;99.90
57753;DHT22;43583;53.132;6.574;2022-07-06T03:29:22;12.10;99.90
57753;DHT22;43583;53.132;6.574;2022-07-06T03:31:47;12.00;99.90
57753;DHT22;43583;53.132;6.574;2022-07-06T03:34:13;12.00;99.90
57753;DHT22;43583;53.132;6.574;2022-07-06T03:36:39;11.90;99.90
57753;DHT22;43583;53.132;6.574;2022-07-06T03:39:05;11.90;99.90
57753;DHT22;43583;53.132;6.574;2022-07-06T03:41:31;11.80;99.90
57753;DHT22;43583;53.132;6.574;2022-07-06T03:43:58;11.70;99.90
57753;DHT22;43583;53.132;6.574;2022-07-06T03:46:23;11.70;99.90
57753;DHT22;43583;53.132;6.574;2022-07-06T03:48:49;11.60;99.90
57753;DHT22;43583;53.132;6.574;2022-07-06T03:51:14;11.60;99.90
57753;DHT22;43583;53.132;6.574;2022-07-06T03:53:40;11.70;99.90
57753;DHT22;43583;53.132;6.574;2022-07-06T03:56:06;11.90;99.90
57753;DHT22;43583;53.132;6.574;2022-07-06T03:58:50;12.10;99.90
57753;DHT22;43583;53.132;6.574;2022-07-06T04:01:16;12.60;99.90
57753;DHT22;43583;53.132;6.574;2022-07-06T04:03:41;13.20;99.90
57753;DHT22;43583;53.132;6.574;2022-07-06T04:06:07;13.80;99.90
57753;DHT22;43583;53.132;6.574;2022-07-06T04:08:32;14.50;99.90
57753;DHT22;43583;53.132;6.574;2022-07-06T04:10:58;15.10;99.90
57753;DHT22;43583;53.132;6.574;2022-07-06T04:13:24;15.60;99.90
57753;DHT22;43583;53.132;6.574;2022-07-06T04:15:51;16.20;99.90
57753;DHT22;43583;53.132;6.574;2022-07-06T04:18:17;16.80;99.90
57753;DHT22;43583;53.132;6.574;2022-07-06T04:20:42;17.30;99.90
57753;DHT22;43583;53.132;6.574;2022-07-06T04:23:08;17.70;99.90
57753;DHT22;43583;53.132;6.574;2022-07-06T04:25:34;17.90;99.90
57753;DHT22;43583;53.132;6.574;2022-07-06T04:28:00;17.80;99.90
57753;DHT22;43583;53.132;6.574;2022-07-06T04:30:25;17.70;99.90
57753;DHT22;43583;53.132;6.574;2022-07-06T04:32:51;17.60;99.90
57753;DHT22;43583;53.132;6.574;2022-07-06T04:35:17;17.40;99.90
57753;DHT22;43583;53.132;6.574;2022-07-06T04:37:43;17.10;99.90
57753;DHT22;43583;53.132;6.574;2022-07-06T04:40:11;16.60;99.90
57753;DHT22;43583;53.132;6.574;2022-07-06T04:42:37;16.30;99.90
57753;DHT22;43583;53.132;6.574;2022-07-06T04:45:03;15.90;99.90
57753;DHT22;43583;53.132;6.574;2022-07-06T04:47:29;15.70;99.90
57753;DHT22;43583;53.132;6.574;2022-07-06T04:49:55;15.40;99.90
57753;DHT22;43583;53.132;6.574;2022-07-06T04:52:20;15.20;99.90
57753;DHT22;43583;53.132;6.574;2022-07-06T04:54:46;15.00;99.90
57753;DHT22;43583;53.132;6.574;2022-07-06T04:57:11;14.80;99.90
57753;DHT22;43583;53.132;6.574;2022-07-06T04:59:37;14.70;99.90
57753;DHT22;43583;53.132;6.574;2022-07-06T05:02:03;14.60;99.90
57753;DHT22;43583;53.132;6.574;2022-07-06T05:04:29;14.60;99.90
57753;DHT22;43583;53.132;6.574;2022-07-06T05:06:54;14.50;99.90
57753;DHT22;43583;53.132;6.574;2022-07-06T05:09:20;14.50;99.90
57753;DHT22;43583;53.132;6.574;2022-07-06T05:11:45;14.50;99.90
57753;DHT22;43583;53.132;6.574;2022-07-06T05:14:11;14.50;99.90
57753;DHT22;43583;53.132;6.574;2022-07-06T05:16:37;14.50;99.90
57753;DHT22;43583;53.132;6.574;2022-07-06T05:19:02;14.50;99.90
57753;DHT22;43583;53.132;6.574;2022-07-06T05:21:28;14.60;99.90
57753;DHT22;43583;53.132;6.574;2022-07-06T05:23:53;14.60;99.90
57753;DHT22;43583;53.132;6.574;2022-07-06T05:26:19;14.60;99.90
57753;DHT22;43583;53.132;6.574;2022-07-06T05:28:45;14.70;99.90
57753;DHT22;43583;53.132;6.574;2022-07-06T05:31:10;14.80;99.90
57753;DHT22;43583;53.132;6.574;2022-07-06T05:33:36;14.90;99.90
57753;DHT22;43583;53.132;6.574;2022-07-06T05:36:02;14.90;99.90
57753;DHT22;43583;53.132;6.574;2022-07-06T05:38:28;14.90;99.90
57753;DHT22;43583;53.132;6.574;2022-07-06T05:40:53;14.90;99.90
57753;DHT22;43583;53.132;6.574;2022-07-06T05:43:19;14.80;99.90
57753;DHT22;43583;53.132;6.574;2022-07-06T05:45:44;14.60;99.90
57753;DHT22;43583;53.132;6.574;2022-07-06T05:48:10;14.60;99.90
57753;DHT22;43583;53.132;6.574;2022-07-06T05:50:54;14.50;99.90
57753;DHT22;43583;53.132;6.574;2022-07-06T05:53:20;14.60;99.90
57753;DHT22;43583;53.132;6.574;2022-07-06T05:55:46;14.70;99.90
57753;DHT22;43583;53.132;6.574;2022-07-06T05:58:12;15.00;99.90
57753;DHT22;43583;53.132;6.574;2022-07-06T06:00:37;15.30;99.90
57753;DHT22;43583;53.132;6.574;2022-07-06T06:03:03;15.60;99.90
57753;DHT22;43583;53.132;6.574;2022-07-06T06:05:29;16.60;99.90
57753;DHT22;43583;53.132;6.574;2022-07-06T06:07:54;17.40;99.90
57753;DHT22;43583;53.132;6.574;2022-07-06T06:10:20;17.80;99.90
57753;DHT22;43583;53.132;6.574;2022-07-06T06:12:49;17.70;99.90
57753;DHT22;43583;53.132;6.574;2022-07-06T06:15:15;17.40;99.90
57753;DHT22;43583;53.132;6.574;2022-07-06T06:17:41;17.00;99.90
57753;DHT22;43583;53.132;6.574;2022-07-06T06:20:10;16.70;99.90
57753;DHT22;43583;53.132;6.574;2022-07-06T06:25:13;16.10;99.90
57753;DHT22;43583;53.132;6.574;2022-07-06T06:27:39;16.00;99.90
57753;DHT22;43583;53.132;6.574;2022-07-06T06:30:05;15.90;99.90
57753;DHT22;43583;53.132;6.574;2022-07-06T06:32:31;15.80;99.90
57753;DHT22;43583;53.132;6.574;2022-07-06T06:34:56;15.80;99.90
57753;DHT22;43583;53.132;6.574;2022-07-06T06:37:22;15.80;99.90
57753;DHT22;43583;53.132;6.574;2022-07-06T06:39:47;15.70;99.90
57753;DHT22;43583;53.132;6.574;2022-07-06T06:42:13;15.70;99.90
57753;DHT22;43583;53.132;6.574;2022-07-06T06:44:38;15.60;99.90
57753;DHT22;43583;53.132;6.574;2022-07-06T06:47:04;15.60;99.90
57753;DHT22;43583;53.132;6.574;2022-07-06T06:49:29;15.60;99.90
57753;DHT22;43583;53.132;6.574;2022-07-06T06:51:55;15.70;99.90
57753;DHT22;43583;53.132;6.574;2022-07-06T06:54:20;15.70;99.90
57753;DHT22;43583;53.132;6.574;2022-07-06T06:56:46;15.70;99.90
57753;DHT22;43583;53.132;6.574;2022-07-06T06:59:11;15.80;99.90
57753;DHT22;43583;53.132;6.574;2022-07-06T07:01:37;15.90;99.90
57753;DHT22;43583;53.132;6.574;2022-07-06T07:04:02;16.00;99.90
57753;DHT22;43583;53.132;6.574;2022-07-06T07:06:28;16.30;99.90
57753;DHT22;43583;53.132;6.574;2022-07-06T07:08:54;17.40;99.90
57753;DHT22;43583;53.132;6.574;2022-07-06T07:11:21;18.60;99.90
57753;DHT22;43583;53.132;6.574;2022-07-06T07:13:46;19.70;99.90
57753;DHT22;43583;53.132;6.574;2022-07-06T07:16:12;20.00;99.90
57753;DHT22;43583;53.132;6.574;2022-07-06T07:18:37;20.10;99.90
57753;DHT22;43583;53.132;6.574;2022-07-06T07:21:03;19.90;99.90
57753;DHT22;43583;53.132;6.574;2022-07-06T07:23:28;20.10;99.90
57753;DHT22;43583;53.132;6.574;2022-07-06T07:25:54;20.40;99.90
57753;DHT22;43583;53.132;6.574;2022-07-06T07:28:20;20.40;99.90
57753;DHT22;43583;53.132;6.574;2022-07-06T07:30:45;20.10;99.90
57753;DHT22;43583;53.132;6.574;2022-07-06T07:33:11;19.80;99.90
57753;DHT22;43583;53.132;6.574;2022-07-06T07:35:36;20.00;99.90
57753;DHT22;43583;53.132;6.574;2022-07-06T07:38:02;20.70;99.90
57753;DHT22;43583;53.132;6.574;2022-07-06T07:40:27;21.80;99.90
57753;DHT22;43583;53.132;6.574;2022-07-06T07:42:53;22.70;99.90
57753;DHT22;43583;53.132;6.574;2022-07-06T07:45:18;23.50;98.50
57753;DHT22;43583;53.132;6.574;2022-07-06T07:47:44;24.30;93.80
57753;DHT22;43583;53.132;6.574;2022-07-06T07:50:10;25.00;88.50
57753;DHT22;43583;53.132;6.574;2022-07-06T07:52:36;26.00;85.10
57753;DHT22;43583;53.132;6.574;2022-07-06T07:55:02;26.60;81.00
57753;DHT22;43583;53.132;6.574;2022-07-06T07:57:27;26.40;78.60
57753;DHT22;43583;53.132;6.574;2022-07-06T07:59:53;25.70;74.40
57753;DHT22;43583;53.132;6.574;2022-07-06T08:02:18;24.70;72.90
57753;DHT22;43583;53.132;6.574;2022-07-06T08:04:44;23.80;72.80
57753;DHT22;43583;53.132;6.574;2022-07-06T08:07:09;23.80;76.90
57753;DHT22;43583;53.132;6.574;2022-07-06T08:09:35;24.30;77.50
57753;DHT22;43583;53.132;6.574;2022-07-06T08:12:01;24.00;73.90
57753;DHT22;43583;53.132;6.574;2022-07-06T08:14:27;23.40;73.50
57753;DHT22;43583;53.132;6.574;2022-07-06T08:16:52;22.90;74.30
57753;DHT22;43583;53.132;6.574;2022-07-06T08:19:18;22.20;74.10
57753;DHT22;43583;53.132;6.574;2022-07-06T08:21:44;22.10;77.10
57753;DHT22;43583;53.132;6.574;2022-07-06T08:24:09;22.50;77.00
57753;DHT22;43583;53.132;6.574;2022-07-06T08:26:36;23.10;77.20
57753;DHT22;43583;53.132;6.574;2022-07-06T08:29:02;23.30;75.50
57753;DHT22;43583;53.132;6.574;2022-07-06T08:31:28;23.80;74.60
57753;DHT22;43583;53.132;6.574;2022-07-06T08:33:54;24.30;73.00
57753;DHT22;43583;53.132;6.574;2022-07-06T08:36:20;24.60;71.40
57753;DHT22;43583;53.132;6.574;2022-07-06T08:38:46;25.20;71.40
57753;DHT22;43583;53.132;6.574;2022-07-06T08:41:14;25.20;68.80
57753;DHT22;43583;53.132;6.574;2022-07-06T08:43:40;25.20;68.10
57753;DHT22;43583;53.132;6.574;2022-07-06T08:46:07;25.20;66.10
57753;DHT22;43583;53.132;6.574;2022-07-06T08:48:36;25.40;66.50
57753;DHT22;43583;53.132;6.574;2022-07-06T08:51:04;25.60;66.50
57753;DHT22;43583;53.132;6.574;2022-07-06T08:53:29;25.80;66.00
57753;DHT22;43583;53.132;6.574;2022-07-06T08:55:55;25.80;64.10
57753;DHT22;43583;53.132;6.574;2022-07-06T08:58:24;25.20;64.20
57753;DHT22;43583;53.132;6.574;2022-07-06T09:00:50;24.80;66.70
57753;DHT22;43583;53.132;6.574;2022-07-06T09:03:16;24.30;66.70
57753;DHT22;43583;53.132;6.574;2022-07-06T09:05:45;24.30;68.50
57753;DHT22;43583;53.132;6.574;2022-07-06T09:08:11;24.70;65.40
57753;DHT22;43583;53.132;6.574;2022-07-06T09:10:37;24.50;64.70
57753;DHT22;43583;53.132;6.574;2022-07-06T09:13:04;23.90;65.80
57753;DHT22;43583;53.132;6.574;2022-07-06T09:15:32;23.00;67.80
57753;DHT22;43583;53.132;6.574;2022-07-06T09:17:57;22.20;70.00
57753;DHT22;43583;53.132;6.574;2022-07-06T09:20:23;21.50;72.00
57753;DHT22;43583;53.132;6.574;2022-07-06T09:22:50;20.70;75.00
57753;DHT22;43583;53.132;6.574;2022-07-06T09:25:16;20.20;77.90
57753;DHT22;43583;53.132;6.574;2022-07-06T09:27:43;19.90;81.30
57753;DHT22;43583;53.132;6.574;2022-07-06T09:30:13;19.60;83.00
57753;DHT22;43583;53.132;6.574;2022-07-06T09:32:47;19.60;85.30
57753;DHT22;43583;53.132;6.574;2022-07-06T09:35:23;20.10;85.70
57753;DHT22;43583;53.132;6.574;2022-07-06T09:38:08;21.00;87.10
57753;DHT22;43583;53.132;6.574;2022-07-06T09:40:35;22.00;81.60
57753;DHT22;43583;53.132;6.574;2022-07-06T09:43:27;22.30;80.10
57753;DHT22;43583;53.132;6.574;2022-07-06T09:45:54;22.70;79.90
57753;DHT22;43583;53.132;6.574;2022-07-06T09:48:27;22.70;77.60
57753;DHT22;43583;53.132;6.574;2022-07-06T09:51:12;23.10;77.40
57753;DHT22;43583;53.132;6.574;2022-07-06T09:53:40;23.10;77.30
57753;DHT22;43583;53.132;6.574;2022-07-06T09:56:05;22.90;75.80
57753;DHT22;43583;53.132;6.574;2022-07-06T09:58:31;23.30;77.40
57753;DHT22;43583;53.132;6.574;2022-07-06T10:00:56;23.20;75.00
57753;DHT22;43583;53.132;6.574;2022-07-06T10:03:22;23.00;75.70
57753;DHT22;43583;53.132;6.574;2022-07-06T10:05:48;22.80;77.30
57753;DHT22;43583;53.132;6.574;2022-07-06T10:08:16;22.60;78.20
57753;DHT22;43583;53.132;6.574;2022-07-06T10:10:42;22.40;79.00
57753;DHT22;43583;53.132;6.574;2022-07-06T10:13:09;22.10;78.60
57753;DHT22;43583;53.132;6.574;2022-07-06T10:15:37;22.20;79.70
57753;DHT22;43583;53.132;6.574;2022-07-06T10:18:06;22.80;82.10
57753;DHT22;43583;53.132;6.574;2022-07-06T10:20:37;23.60;81.00
57753;DHT22;43583;53.132;6.574;2022-07-06T10:23:05;24.30;77.80
57753;DHT22;43583;53.132;6.574;2022-07-06T10:25:32;24.50;71.50
57753;DHT22;43583;53.132;6.574;2022-07-06T10:27:59;24.70;70.90
57753;DHT22;43583;53.132;6.574;2022-07-06T10:30:41;25.00;69.90
57753;DHT22;43583;53.132;6.574;2022-07-06T10:36:15;24.10;70.50
57753;DHT22;43583;53.132;6.574;2022-07-06T10:38:41;23.60;71.40
57753;DHT22;43583;53.132;6.574;2022-07-06T10:41:11;23.10;70.90
57753;DHT22;43583;53.132;6.574;2022-07-06T10:43:42;23.20;72.70
57753;DHT22;43583;53.132;6.574;2022-07-06T10:46:13;23.40;72.50
57753;DHT22;43583;53.132;6.574;2022-07-06T10:48:46;23.80;72.30
57753;DHT22;43583;53.132;6.574;2022-07-06T10:51:22;24.10;71.80
57753;DHT22;43583;53.132;6.574;2022-07-06T10:53:59;24.00;71.90
57753;DHT22;43583;53.132;6.574;2022-07-06T10:56:35;23.80;68.90
57753;DHT22;43583;53.132;6.574;2022-07-06T10:59:03;23.40;71.40
57753;DHT22;43583;53.132;6.574;2022-07-06T11:01:34;23.20;72.90
57753;DHT22;43583;53.132;6.574;2022-07-06T11:06:26;23.00;73.70
57753;DHT22;43583;53.132;6.574;2022-07-06T11:11:37;23.90;75.40
57753;DHT22;43583;53.132;6.574;2022-07-06T11:23:56;24.10;69.90
57753;DHT22;43583;53.132;6.574;2022-07-06T11:26:22;24.10;70.80
57753;DHT22;43583;53.132;6.574;2022-07-06T11:28:48;24.20;71.70
57753;DHT22;43583;53.132;6.574;2022-07-06T11:31:15;24.40;72.20
57753;DHT22;43583;53.132;6.574;2022-07-06T11:33:41;24.30;70.60
57753;DHT22;43583;53.132;6.574;2022-07-06T11:36:18;24.30;70.60
57753;DHT22;43583;53.132;6.574;2022-07-06T11:38:44;24.20;72.70
57753;DHT22;43583;53.132;6.574;2022-07-06T11:41:11;24.30;73.10
57753;DHT22;43583;53.132;6.574;2022-07-06T11:43:39;24.40;71.20
57753;DHT22;43583;53.132;6.574;2022-07-06T11:46:21;24.20;70.70
57753;DHT22;43583;53.132;6.574;2022-07-06T11:48:49;24.00;70.10
57753;DHT22;43583;53.132;6.574;2022-07-06T11:51:15;23.60;70.80
57753;DHT22;43583;53.132;6.574;2022-07-06T11:53:50;23.20;68.50
57753;DHT22;43583;53.132;6.574;2022-07-06T11:56:16;22.70;69.30
57753;DHT22;43583;53.132;6.574;2022-07-06T11:58:45;22.80;72.30
57753;DHT22;43583;53.132;6.574;2022-07-06T12:01:13;23.00;72.40
57753;DHT22;43583;53.132;6.574;2022-07-06T12:03:38;22.90;71.00
57753;DHT22;43583;53.132;6.574;2022-07-06T12:06:17;23.20;71.30
57753;DHT22;43583;53.132;6.574;2022-07-06T12:08:47;23.60;71.40
57753;DHT22;43583;53.132;6.574;2022-07-06T12:11:18;23.40;69.80
57753;DHT22;43583;53.132;6.574;2022-07-06T12:13:44;23.40;69.80
57753;DHT22;43583;53.132;6.574;2022-07-06T12:16:13;23.30;69.90
57753;DHT22;43583;53.132;6.574;2022-07-06T12:18:41;23.30;70.20
57753;DHT22;43583;53.132;6.574;2022-07-06T12:21:13;23.20;68.90
57753;DHT22;43583;53.132;6.574;2022-07-06T12:23:40;23.30;69.20
57753;DHT22;43583;53.132;6.574;2022-07-06T12:26:06;23.40;70.70
57753;DHT22;43583;53.132;6.574;2022-07-06T12:28:32;23.40;70.00
57753;DHT22;43583;53.132;6.574;2022-07-06T12:30:58;23.40;70.40
57753;DHT22;43583;53.132;6.574;2022-07-06T12:33:23;23.20;69.60
57753;DHT22;43583;53.132;6.574;2022-07-06T12:35:49;23.10;69.80
57753;DHT22;43583;53.132;6.574;2022-07-06T12:38:25;23.00;69.10
57753;DHT22;43583;53.132;6.574;2022-07-06T12:40:51;23.20;70.80
57753;DHT22;43583;53.132;6.574;2022-07-06T12:43:39;23.60;73.00
57753;DHT22;43583;53.132;6.574;2022-07-06T12:46:26;23.90;73.20
57753;DHT22;43583;53.132;6.574;2022-07-06T12:48:53;23.80;71.00
57753;DHT22;43583;53.132;6.574;2022-07-06T12:51:19;23.80;71.50
57753;DHT22;43583;53.132;6.574;2022-07-06T12:53:44;24.00;71.60
57753;DHT22;43583;53.132;6.574;2022-07-06T12:56:14;24.10;71.90
57753;DHT22;43583;53.132;6.574;2022-07-06T12:58:58;23.90;70.20
57753;DHT22;43583;53.132;6.574;2022-07-06T13:01:24;23.50;68.70
57753;DHT22;43583;53.132;6.574;2022-07-06T13:03:57;23.20;69.00
57753;DHT22;43583;53.132;6.574;2022-07-06T13:06:35;22.80;70.60
57753;DHT22;43583;53.132;6.574;2022-07-06T13:09:02;22.40;70.20
57753;DHT22;43583;53.132;6.574;2022-07-06T13:11:28;22.00;70.10
57753;DHT22;43583;53.132;6.574;2022-07-06T13:13:53;21.70;71.40
57753;DHT22;43583;53.132;6.574;2022-07-06T13:16:19;21.50;71.00
57753;DHT22;43583;53.132;6.574;2022-07-06T13:18:45;21.50;72.70
57753;DHT22;43583;53.132;6.574;2022-07-06T13:21:10;21.60;73.10
57753;DHT22;43583;53.132;6.574;2022-07-06T13:23:36;21.50;73.60
57753;DHT22;43583;53.132;6.574;2022-07-06T13:26:02;21.70;74.40
57753;DHT22;43583;53.132;6.574;2022-07-06T13:28:27;21.80;74.70
57753;DHT22;43583;53.132;6.574;2022-07-06T13:30:53;22.00;74.10
57753;DHT22;43583;53.132;6.574;2022-07-06T13:33:18;21.90;73.20
57753;DHT22;43583;53.132;6.574;2022-07-06T13:35:44;21.80;73.60
57753;DHT22;43583;53.132;6.574;2022-07-06T13:38:09;21.60;73.10
57753;DHT22;43583;53.132;6.574;2022-07-06T13:40:35;21.50;72.90
57753;DHT22;43583;53.132;6.574;2022-07-06T13:43:01;21.30;73.40
57753;DHT22;43583;53.132;6.574;2022-07-06T13:45:26;21.30;74.10
57753;DHT22;43583;53.132;6.574;2022-07-06T13:47:52;21.30;74.80
57753;DHT22;43583;53.132;6.574;2022-07-06T13:50:18;21.10;74.80
57753;DHT22;43583;53.132;6.574;2022-07-06T13:52:43;20.80;74.30
57753;DHT22;43583;53.132;6.574;2022-07-06T13:55:09;20.60;74.30
57753;DHT22;43583;53.132;6.574;2022-07-06T13:57:35;20.50;75.20
57753;DHT22;43583;53.132;6.574;2022-07-06T14:00:00;20.40;77.00
57753;DHT22;43583;53.132;6.574;2022-07-06T14:02:26;20.40;77.00
57753;DHT22;43583;53.132;6.574;2022-07-06T14:04:51;20.40;77.00
57753;DHT22;43583;53.132;6.574;2022-07-06T14:07:17;20.40;77.00
57753;DHT22;43583;53.132;6.574;2022-07-06T14:09:44;20.50;77.60
57753;DHT22;43583;53.132;6.574;2022-07-06T14:12:10;20.60;77.90
57753;DHT22;43583;53.132;6.574;2022-07-06T14:14:35;20.60;77.30
57753;DHT22;43583;53.132;6.574;2022-07-06T14:17:01;20.50;77.60
57753;DHT22;43583;53.132;6.574;2022-07-06T14:19:27;20.30;77.70
57753;DHT22;43583;53.132;6.574;2022-07-06T14:21:52;20.20;78.00
57753;DHT22;43583;53.132;6.574;2022-07-06T14:24:18;20.10;79.10
57753;DHT22;43583;53.132;6.574;2022-07-06T14:26:43;20.00;80.20
57753;DHT22;43583;53.132;6.574;2022-07-06T14:29:09;20.10;79.60
57753;DHT22;43583;53.132;6.574;2022-07-06T14:31:34;20.10;80.20
57753;DHT22;43583;53.132;6.574;2022-07-06T14:34:00;20.10;80.20
57753;DHT22;43583;53.132;6.574;2022-07-06T14:36:25;20.10;80.50
57753;DHT22;43583;53.132;6.574;2022-07-06T14:38:51;19.90;80.40
57753;DHT22;43583;53.132;6.574;2022-07-06T14:41:16;19.80;81.60
57753;DHT22;43583;53.132;6.574;2022-07-06T14:43:42;19.70;82.90
57753;DHT22;43583;53.132;6.574;2022-07-06T14:46:08;19.60;83.10
57753;DHT22;43583;53.132;6.574;2022-07-06T14:48:34;19.60;84.20
57753;DHT22;43583;53.132;6.574;2022-07-06T14:50:59;19.60;84.70
57753;DHT22;43583;53.132;6.574;2022-07-06T14:53:25;19.70;85.80
57753;DHT22;43583;53.132;6.574;2022-07-06T14:55:51;19.80;86.90
57753;DHT22;43583;53.132;6.574;2022-07-06T14:58:17;19.80;87.00
57753;DHT22;43583;53.132;6.574;2022-07-06T15:00:44;19.80;86.10
57753;DHT22;43583;53.132;6.574;2022-07-06T15:03:10;19.70;85.20
57753;DHT22;43583;53.132;6.574;2022-07-06T15:05:36;19.60;85.40
57753;DHT22;43583;53.132;6.574;2022-07-06T15:08:02;19.50;86.30
57753;DHT22;43583;53.132;6.574;2022-07-06T15:10:27;19.40;88.20
57753;DHT22;43583;53.132;6.574;2022-07-06T15:12:53;19.20;90.30
57753;DHT22;43583;53.132;6.574;2022-07-06T15:15:19;18.90;91.80
57753;DHT22;43583;53.132;6.574;2022-07-06T15:17:45;18.70;93.10
57753;DHT22;43583;53.132;6.574;2022-07-06T15:20:11;18.60;94.70
57753;DHT22;43583;53.132;6.574;2022-07-06T15:22:37;18.60;95.80
57753;DHT22;43583;53.132;6.574;2022-07-06T15:25:03;18.60;96.20
57753;DHT22;43583;53.132;6.574;2022-07-06T15:27:29;18.70;96.60
57753;DHT22;43583;53.132;6.574;2022-07-06T15:29:55;18.80;96.50
57753;DHT22;43583;53.132;6.574;2022-07-06T15:32:21;18.80;96.20
57753;DHT22;43583;53.132;6.574;2022-07-06T15:34:47;18.80;95.80
57753;DHT22;43583;53.132;6.574;2022-07-06T15:37:13;18.80;95.80
57753;DHT22;43583;53.132;6.574;2022-07-06T15:39:39;18.80;95.60
57753;DHT22;43583;53.132;6.574;2022-07-06T15:42:05;18.80;95.50
57753;DHT22;43583;53.132;6.574;2022-07-06T15:44:30;18.80;95.10
57753;DHT22;43583;53.132;6.574;2022-07-06T15:46:56;18.70;95.40
57753;DHT22;43583;53.132;6.574;2022-07-06T15:49:21;18.60;95.80